createdAt,value
2023-02-13T00:00:21.255Z,68.52
2023-02-13T00:02:47.856Z,68.59
2023-02-13T00:05:14.560Z,68.75
2023-02-13T00:07:41.026Z,68.81
2023-02-13T00:10:08.682Z,69.01
2023-02-13T00:12:35.711Z,69.07
2023-02-13T00:15:02.501Z,69.01
2023-02-13T00:17:29.077Z,69.06
2023-02-13T00:19:55.555Z,69.23
2023-02-13T00:22:22.251Z,69.09
2023-02-13T00:24:48.794Z,68.95
2023-02-13T00:27:15.279Z,68.80
2023-02-13T00:29:41.755Z,68.86
2023-02-13T00:32:08.989Z,68.80
2023-02-13T00:34:35.657Z,68.79
2023-02-13T00:37:03.206Z,68.84
2023-02-13T00:39:30.062Z,68.83
2023-02-13T00:41:56.595Z,68.58
2023-02-13T00:44:23.210Z,68.78
2023-02-13T00:46:49.891Z,68.72
2023-02-13T00:49:17.050Z,68.85
2023-02-13T00:51:43.700Z,68.83
2023-02-13T00:54:10.346Z,68.88
2023-02-13T00:56:37.317Z,68.80
2023-02-13T00:59:05.731Z,68.96
2023-02-13T01:01:32.680Z,68.69
2023-02-13T01:04:00.043Z,68.77
2023-02-13T01:06:27.635Z,68.60
2023-02-13T01:08:54.153Z,68.56
2023-02-13T01:11:20.959Z,68.62
2023-02-13T01:13:47.574Z,68.19
2023-02-13T01:16:14.369Z,68.21
2023-02-13T01:18:40.860Z,68.24
2023-02-13T01:21:09.336Z,68.19
2023-02-13T01:23:38.342Z,68.21
2023-02-13T01:26:07.102Z,68.48
2023-02-13T01:28:34.481Z,68.45
2023-02-13T01:31:01.686Z,68.65
2023-02-13T01:33:29.550Z,68.56
2023-02-13T01:35:56.061Z,68.67
2023-02-13T01:38:22.752Z,68.63
2023-02-13T01:40:52.037Z,68.58
2023-02-13T01:43:19.424Z,68.62
2023-02-13T01:45:48.911Z,68.58
2023-02-13T01:48:21.076Z,68.29
2023-02-13T01:50:55.869Z,68.23
2023-02-13T01:53:26.685Z,68.42
2023-02-13T01:56:00.325Z,68.15
2023-02-13T01:58:32.088Z,68.30
2023-02-13T02:00:59.506Z,68.48
2023-02-13T02:03:35.526Z,68.53
2023-02-13T02:06:08.137Z,68.20
2023-02-13T02:08:35.582Z,68.47
2023-02-13T02:11:09.602Z,68.03
2023-02-13T02:13:36.481Z,68.23
2023-02-13T02:16:07.592Z,68.43
2023-02-13T02:18:34.220Z,68.29
2023-02-13T02:21:09.807Z,68.11
2023-02-13T02:23:45.152Z,68.13
2023-02-13T02:26:25.462Z,67.90
2023-02-13T02:29:13.853Z,67.72
2023-02-13T02:32:23.004Z,67.90
2023-02-13T02:34:53.601Z,68.07
2023-02-13T02:37:44.742Z,68.06
2023-02-13T02:40:36.894Z,68.17
2023-02-13T02:43:24.187Z,68.30
2023-02-13T02:46:26.845Z,68.26
2023-02-13T02:49:16.085Z,68.02
2023-02-13T02:52:01.799Z,68.12
2023-02-13T02:54:51.618Z,68.08
2023-02-13T02:57:25.015Z,67.90
2023-02-13T02:59:57.861Z,68.27
2023-02-13T03:02:24.909Z,68.23
2023-02-13T03:04:54.441Z,68.23
2023-02-13T03:07:23.146Z,68.50
2023-02-13T03:09:56.363Z,68.42
2023-02-13T03:12:25.918Z,68.52
2023-02-13T03:14:52.457Z,68.79
2023-02-13T03:17:19.893Z,68.62
2023-02-13T03:19:52.394Z,68.49
2023-02-13T03:22:26.677Z,68.13
2023-02-13T03:25:08.397Z,68.24
2023-02-13T03:27:51.193Z,68.15
2023-02-13T03:30:45.619Z,68.24
2023-02-13T03:33:28.605Z,68.26
2023-02-13T03:36:04.541Z,68.42
2023-02-13T03:38:54.848Z,68.18
2023-02-13T03:41:44.685Z,67.97
2023-02-13T03:44:20.183Z,67.95
2023-02-13T03:46:49.768Z,68.12
2023-02-13T03:49:19.889Z,67.85
2023-02-13T03:51:56.223Z,67.89
2023-02-13T03:54:37.532Z,67.82
2023-02-13T03:57:04.319Z,67.85
2023-02-13T03:59:34.944Z,67.72
2023-02-13T04:02:13.904Z,67.65
2023-02-13T04:04:50.727Z,67.78
2023-02-13T04:07:19.512Z,68.03
2023-02-13T04:09:46.095Z,68.02
2023-02-13T04:12:45.325Z,67.64
2023-02-13T04:15:28.308Z,68.16
2023-02-13T04:18:13.906Z,67.59
2023-02-13T04:20:40.670Z,68.21
2023-02-13T04:23:09.356Z,68.10
2023-02-13T04:25:38.860Z,68.08
2023-02-13T04:28:06.291Z,68.30
2023-02-13T04:30:33.627Z,68.56
2023-02-13T04:33:00.321Z,68.41
2023-02-13T04:35:26.837Z,68.56
2023-02-13T04:37:53.381Z,68.54
2023-02-13T04:40:20.160Z,68.65
2023-02-13T04:42:49.801Z,68.40
2023-02-13T04:45:16.678Z,68.16
2023-02-13T04:47:43.268Z,68.23
2023-02-13T04:50:10.175Z,68.04
2023-02-13T04:52:36.648Z,68.16
2023-02-13T04:55:03.321Z,67.98
2023-02-13T04:57:30.024Z,67.99
2023-02-13T04:59:56.486Z,68.38
2023-02-13T05:02:23.092Z,68.21
2023-02-13T05:04:49.685Z,68.42
2023-02-13T05:07:16.301Z,68.47
2023-02-13T05:09:42.920Z,68.71
2023-02-13T05:12:09.374Z,68.80
2023-02-13T05:14:36.034Z,68.70
2023-02-13T05:17:02.648Z,68.60
2023-02-13T05:19:29.188Z,68.76
2023-02-13T05:21:55.672Z,68.62
2023-02-13T05:24:22.401Z,68.54
2023-02-13T05:26:48.900Z,68.29
2023-02-13T05:29:15.402Z,68.35
2023-02-13T05:31:42.042Z,68.10
2023-02-13T05:34:08.700Z,68.01
2023-02-13T05:36:35.231Z,68.28
2023-02-13T05:39:01.932Z,68.34
2023-02-13T05:41:28.501Z,68.50
2023-02-13T05:43:55.044Z,68.38
2023-02-13T05:46:21.616Z,68.35
2023-02-13T05:48:48.203Z,68.49
2023-02-13T05:51:14.740Z,68.53
2023-02-13T05:53:41.287Z,68.44
2023-02-13T05:56:07.775Z,68.68
2023-02-13T05:58:34.844Z,68.55
2023-02-13T06:01:01.472Z,68.57
2023-02-13T06:03:29.751Z,68.29
2023-02-13T06:05:57.112Z,68.13
2023-02-13T06:08:23.959Z,68.38
2023-02-13T06:10:51.312Z,68.19
2023-02-13T06:13:18.667Z,68.25
2023-02-13T06:15:45.786Z,68.18
2023-02-13T06:18:12.377Z,67.89
2023-02-13T06:20:38.930Z,67.86
2023-02-13T06:23:05.440Z,67.46
2023-02-13T06:25:31.944Z,67.58
2023-02-13T06:27:58.484Z,67.59
2023-02-13T06:30:25.051Z,67.85
2023-02-13T06:32:51.657Z,67.67
2023-02-13T06:35:18.195Z,67.64
2023-02-13T06:37:44.885Z,67.76
2023-02-13T06:40:13.003Z,68.15
2023-02-13T06:42:39.648Z,67.61
2023-02-13T06:45:06.895Z,68.15
2023-02-13T06:47:33.482Z,67.97
2023-02-13T06:50:00.017Z,67.71
2023-02-13T06:52:26.601Z,68.01
2023-02-13T06:54:53.284Z,67.96
2023-02-13T06:57:19.721Z,68.13
2023-02-13T06:59:46.205Z,68.03
2023-02-13T07:02:13.600Z,68.27
2023-02-13T07:04:40.346Z,68.45
2023-02-13T07:07:06.896Z,68.79
2023-02-13T07:09:33.783Z,68.75
2023-02-13T07:12:03.806Z,68.46
2023-02-13T07:14:30.475Z,68.80
2023-02-13T07:16:57.424Z,68.64
2023-02-13T07:19:23.894Z,68.93
2023-02-13T07:21:50.380Z,68.87
2023-02-13T07:24:16.940Z,68.85
2023-02-13T07:26:43.403Z,68.91
2023-02-13T07:29:11.791Z,68.72
2023-02-13T07:31:39.271Z,68.78
2023-02-13T07:34:06.176Z,68.71
2023-02-13T07:36:32.707Z,68.89
2023-02-13T07:38:59.325Z,68.83
2023-02-13T07:41:26.060Z,68.75
2023-02-13T07:43:53.353Z,68.72
2023-02-13T07:46:19.966Z,68.64
2023-02-13T07:48:46.596Z,68.27
2023-02-13T07:51:13.178Z,68.34
2023-02-13T07:53:39.938Z,68.41
2023-02-13T07:56:10.158Z,68.03
2023-02-13T07:58:37.993Z,68.49
2023-02-13T08:01:12.689Z,67.45
2023-02-13T08:03:39.340Z,68.58
2023-02-13T08:06:07.189Z,68.39
2023-02-13T08:08:34.591Z,68.48
2023-02-13T08:11:20.025Z,67.29
2023-02-13T08:13:46.582Z,68.53
2023-02-13T08:16:13.146Z,68.50
2023-02-13T08:18:39.841Z,68.49
2023-02-13T08:21:06.350Z,68.50
2023-02-13T08:23:32.966Z,68.23
2023-02-13T08:26:01.389Z,68.35
2023-02-13T08:28:31.260Z,67.78
2023-02-13T08:30:57.869Z,68.36
2023-02-13T08:33:24.601Z,68.50
2023-02-13T08:35:51.093Z,68.36
2023-02-13T08:38:24.916Z,68.73
2023-02-13T08:40:51.469Z,68.62
2023-02-13T08:43:18.214Z,68.69
2023-02-13T08:45:44.945Z,68.42
2023-02-13T08:48:17.476Z,67.71
2023-02-13T08:50:44.085Z,67.97
2023-02-13T08:53:10.805Z,68.17
2023-02-13T08:55:37.264Z,68.00
2023-02-13T08:58:04.961Z,67.96
2023-02-13T09:00:31.654Z,68.08
2023-02-13T09:03:03.114Z,66.91
2023-02-13T09:05:31.090Z,68.06
2023-02-13T09:08:00.894Z,67.30
2023-02-13T09:10:27.576Z,67.95
2023-02-13T09:12:54.935Z,67.98
2023-02-13T09:15:21.587Z,68.07
2023-02-13T09:17:48.271Z,68.14
2023-02-13T09:20:14.980Z,68.13
2023-02-13T09:22:41.931Z,68.14
2023-02-13T09:25:09.576Z,67.79
2023-02-13T09:27:36.226Z,67.79
2023-02-13T09:30:03.155Z,67.68
2023-02-13T09:32:29.839Z,67.98
2023-02-13T09:34:56.330Z,67.90
2023-02-13T09:37:23.147Z,67.93
2023-02-13T09:39:49.627Z,67.83
2023-02-13T09:42:26.829Z,66.64
2023-02-13T09:44:59.297Z,67.15
2023-02-13T09:47:35.921Z,66.47
2023-02-13T09:50:22.685Z,67.66
2023-02-13T09:52:52.697Z,67.54
2023-02-13T09:55:24.103Z,66.82
2023-02-13T09:58:03.154Z,66.18
2023-02-13T10:00:34.517Z,66.69
2023-02-13T10:03:23.449Z,66.32
2023-02-13T10:05:55.016Z,66.40
2023-02-13T10:08:43.281Z,66.12
2023-02-13T10:11:09.646Z,66.03
2023-02-13T10:13:57.985Z,64.96
2023-02-13T10:16:35.247Z,66.11
2023-02-13T10:19:23.102Z,66.27
2023-02-13T10:21:52.926Z,65.05
2023-02-13T10:24:21.981Z,66.80
2023-02-13T10:26:48.489Z,67.84
2023-02-13T10:29:23.568Z,66.84
2023-02-13T10:31:52.324Z,66.99
2023-02-13T10:34:24.991Z,65.15
2023-02-13T10:36:51.908Z,65.71
2023-02-13T10:39:25.193Z,65.69
2023-02-13T10:42:00.909Z,64.21
2023-02-13T10:44:37.761Z,63.39
2023-02-13T10:47:22.898Z,63.42
2023-02-13T10:50:31.855Z,62.32
2023-02-13T10:53:08.234Z,64.59
2023-02-13T10:56:04.287Z,64.65
2023-02-13T10:58:47.367Z,63.38
2023-02-13T11:01:24.426Z,63.69
2023-02-13T11:04:05.229Z,63.98
2023-02-13T11:06:34.673Z,65.35
2023-02-13T11:09:01.231Z,65.40
2023-02-13T11:11:36.760Z,62.96
2023-02-13T11:14:19.552Z,63.12
2023-02-13T11:17:05.161Z,61.88
2023-02-13T11:19:37.077Z,65.57
2023-02-13T11:22:05.656Z,65.47
2023-02-13T11:24:32.862Z,65.15
2023-02-13T11:27:03.559Z,64.46
2023-02-13T11:29:32.711Z,64.81
2023-02-13T11:32:14.600Z,64.39
2023-02-13T11:34:41.492Z,65.42
2023-02-13T11:37:16.254Z,64.68
2023-02-13T11:39:44.876Z,64.68
2023-02-13T11:42:20.182Z,62.88
2023-02-13T11:44:55.796Z,63.96
2023-02-13T11:47:36.074Z,62.55
2023-02-13T11:50:04.032Z,65.13
2023-02-13T11:52:33.876Z,64.89
2023-02-13T11:55:27.880Z,62.30
2023-02-13T11:58:00.295Z,63.33
2023-02-13T12:00:30.114Z,65.16
2023-02-13T12:02:56.780Z,64.49
2023-02-13T12:05:26.408Z,64.64
2023-02-13T12:07:57.343Z,64.59
2023-02-13T12:10:33.269Z,64.31
2023-02-13T12:13:07.173Z,63.26
2023-02-13T12:15:36.557Z,63.35
2023-02-13T12:18:05.612Z,62.68
2023-02-13T12:20:52.458Z,62.94
2023-02-13T12:23:34.009Z,62.70
2023-02-13T12:26:26.326Z,62.86
2023-02-13T12:29:37.086Z,63.85
2023-02-13T12:32:18.480Z,64.46
2023-02-13T12:35:27.361Z,61.89
2023-02-13T12:38:27.916Z,61.57
2023-02-13T12:41:05.279Z,63.46
2023-02-13T12:44:05.924Z,62.60
2023-02-13T12:47:01.279Z,62.76
2023-02-13T12:49:52.730Z,63.14
2023-02-13T12:52:38.169Z,62.79
2023-02-13T12:55:35.982Z,63.72
2023-02-13T12:58:23.314Z,63.26
2023-02-13T13:00:55.496Z,63.27
2023-02-13T13:03:43.673Z,63.17
2023-02-13T13:06:16.358Z,63.20
2023-02-13T13:08:58.035Z,62.46
2023-02-13T13:11:32.648Z,62.94
2023-02-13T13:14:19.115Z,63.49
2023-02-13T13:17:01.021Z,62.29
2023-02-13T13:19:48.009Z,62.55
2023-02-13T13:22:33.033Z,61.17
2023-02-13T13:25:12.672Z,61.34
2023-02-13T13:27:49.495Z,62.06
2023-02-13T13:30:23.559Z,63.00
2023-02-13T13:32:56.729Z,62.67
2023-02-13T13:35:23.510Z,63.10
2023-02-13T13:38:11.122Z,62.48
2023-02-13T13:41:09.437Z,61.97
2023-02-13T13:44:04.211Z,60.98
2023-02-13T13:46:57.211Z,62.39
2023-02-13T13:49:54.113Z,60.37
2023-02-13T13:52:27.428Z,61.30
2023-02-13T13:54:55.719Z,62.03
2023-02-13T13:57:25.683Z,61.76
2023-02-13T13:59:56.224Z,62.06
2023-02-13T14:02:22.718Z,63.32
2023-02-13T14:05:11.136Z,61.43
2023-02-13T14:07:40.185Z,63.52
2023-02-13T14:10:25.646Z,63.41
2023-02-13T14:12:58.073Z,62.46
2023-02-13T14:15:33.780Z,61.60
2023-02-13T14:18:12.215Z,61.60
2023-02-13T14:20:47.578Z,61.88
2023-02-13T14:23:19.161Z,62.26
2023-02-13T14:25:46.060Z,62.94
2023-02-13T14:28:27.052Z,61.81
2023-02-13T14:31:07.119Z,61.67
2023-02-13T14:33:34.061Z,63.30
2023-02-13T14:36:17.094Z,62.87
2023-02-13T14:38:43.645Z,63.54
2023-02-13T14:41:48.914Z,62.24
2023-02-13T14:44:20.301Z,62.47
2023-02-13T14:46:49.347Z,63.36
2023-02-13T14:49:21.316Z,62.37
2023-02-13T14:52:00.104Z,61.80
2023-02-13T14:54:45.368Z,61.19
2023-02-13T14:57:44.672Z,61.97
2023-02-13T15:00:17.630Z,63.90
2023-02-13T15:02:53.170Z,62.86
2023-02-13T15:05:21.016Z,63.68
2023-02-13T15:07:59.085Z,61.91
2023-02-13T15:10:34.646Z,62.32
2023-02-13T15:13:02.829Z,63.39
2023-02-13T15:15:31.932Z,61.92
2023-02-13T15:18:18.993Z,62.51
2023-02-13T15:20:46.969Z,63.77
2023-02-13T15:23:25.897Z,61.90
2023-02-13T15:26:04.514Z,62.82
2023-02-13T15:28:32.243Z,63.33
2023-02-13T15:31:04.675Z,61.93
2023-02-13T15:33:51.015Z,62.34
2023-02-13T15:36:26.627Z,62.38
2023-02-13T15:39:00.565Z,61.89
2023-02-13T15:41:37.381Z,62.32
2023-02-13T15:44:04.958Z,63.27
2023-02-13T15:46:34.017Z,63.13
2023-02-13T15:49:09.460Z,62.68
2023-02-13T15:51:36.475Z,63.47
2023-02-13T15:54:05.784Z,63.50
2023-02-13T15:56:33.617Z,63.45
2023-02-13T15:59:01.406Z,63.48
2023-02-13T16:01:29.216Z,63.65
2023-02-13T16:04:04.288Z,63.06
2023-02-13T16:06:33.092Z,63.48
2023-02-13T16:09:01.068Z,63.29
2023-02-13T16:11:39.999Z,63.31
2023-02-13T16:14:21.178Z,62.70
2023-02-13T16:16:57.746Z,63.13
2023-02-13T16:19:41.636Z,62.74
2023-02-13T16:22:21.157Z,62.66
2023-02-13T16:24:52.019Z,63.25
2023-02-13T16:27:23.610Z,62.48
2023-02-13T16:30:02.063Z,62.34
2023-02-13T16:32:35.389Z,62.65
2023-02-13T16:35:27.268Z,62.71
2023-02-13T16:37:57.982Z,63.41
2023-02-13T16:40:27.520Z,63.72
2023-02-13T16:42:54.058Z,64.05
2023-02-13T16:45:24.276Z,64.11
2023-02-13T16:47:59.725Z,64.33
2023-02-13T16:50:26.211Z,64.73
2023-02-13T16:53:00.849Z,64.69
2023-02-13T16:55:27.473Z,65.05
2023-02-13T16:58:02.022Z,64.77
2023-02-13T17:00:28.529Z,65.27
2023-02-13T17:02:55.026Z,65.17
2023-02-13T17:05:24.431Z,65.13
2023-02-13T17:07:53.384Z,65.04
2023-02-13T17:10:31.666Z,64.70
2023-02-13T17:13:00.837Z,65.11
2023-02-13T17:15:30.612Z,65.11
2023-02-13T17:17:57.513Z,65.27
2023-02-13T17:20:27.569Z,65.03
2023-02-13T17:22:59.261Z,65.00
2023-02-13T17:25:29.311Z,65.29
2023-02-13T17:27:58.223Z,65.39
2023-02-13T17:30:28.591Z,65.29
2023-02-13T17:33:07.745Z,65.26
2023-02-13T17:35:34.803Z,65.89
2023-02-13T17:38:01.323Z,65.75
2023-02-13T17:40:28.044Z,66.02
2023-02-13T17:42:56.170Z,65.72
2023-02-13T17:45:25.314Z,65.49
2023-02-13T17:47:53.081Z,65.56
2023-02-13T17:50:20.772Z,65.69
2023-02-13T17:52:48.447Z,66.02
2023-02-13T17:55:27.539Z,65.75
2023-02-13T17:57:55.720Z,66.37
2023-02-13T18:00:24.033Z,66.48
2023-02-13T18:02:51.424Z,66.46
2023-02-13T18:05:19.398Z,66.56
2023-02-13T18:07:47.497Z,66.63
2023-02-13T18:10:18.638Z,66.11
2023-02-13T18:12:46.395Z,66.15
2023-02-13T18:15:13.786Z,66.02
2023-02-13T18:17:41.129Z,65.99
2023-02-13T18:20:11.465Z,65.78
2023-02-13T18:22:38.011Z,65.93
2023-02-13T18:25:05.389Z,66.06
2023-02-13T18:27:31.914Z,66.07
2023-02-13T18:29:58.772Z,66.19
2023-02-13T18:32:25.653Z,66.28
2023-02-13T18:34:52.214Z,66.56
2023-02-13T18:37:19.418Z,66.45
2023-02-13T18:39:45.998Z,66.43
2023-02-13T18:42:12.864Z,66.64
2023-02-13T18:44:40.154Z,66.30
2023-02-13T18:47:07.108Z,66.47
2023-02-13T18:49:33.670Z,66.35
2023-02-13T18:52:00.126Z,66.42
2023-02-13T18:54:26.621Z,66.34
2023-02-13T18:56:53.364Z,66.52
2023-02-13T18:59:19.971Z,66.53
2023-02-13T19:01:46.561Z,66.90
2023-02-13T19:04:13.112Z,66.94
2023-02-13T19:06:41.398Z,66.98
2023-02-13T19:09:08.196Z,67.00
2023-02-13T19:11:35.092Z,66.74
2023-02-13T19:14:01.704Z,66.99
2023-02-13T19:16:30.426Z,67.06
2023-02-13T19:19:00.029Z,67.11
2023-02-13T19:21:29.865Z,66.87
2023-02-13T19:23:57.026Z,67.00
2023-02-13T19:26:25.537Z,67.14
2023-02-13T19:28:52.587Z,67.04
2023-02-13T19:31:22.455Z,66.91
2023-02-13T19:33:50.012Z,67.10
2023-02-13T19:36:27.519Z,66.97
2023-02-13T19:39:06.098Z,66.75
2023-02-13T19:41:32.922Z,67.06
2023-02-13T19:43:59.941Z,66.93
2023-02-13T19:46:29.480Z,66.92
2023-02-13T19:48:56.296Z,67.10
2023-02-13T19:51:33.752Z,66.96
2023-02-13T19:54:06.013Z,66.85
2023-02-13T19:56:36.350Z,66.92
2023-02-13T19:59:04.385Z,66.97
2023-02-13T20:01:30.919Z,66.91
2023-02-13T20:03:57.780Z,66.64
2023-02-13T20:06:28.041Z,66.58
2023-02-13T20:08:59.508Z,66.64
2023-02-13T20:11:26.076Z,67.04
2023-02-13T20:13:54.054Z,67.11
2023-02-13T20:16:20.689Z,67.27
2023-02-13T20:18:47.511Z,67.55
2023-02-13T20:21:16.005Z,67.52
2023-02-13T20:23:43.627Z,67.53
2023-02-13T20:26:13.953Z,67.20
2023-02-13T20:28:42.168Z,67.33
2023-02-13T20:31:13.953Z,67.30
2023-02-13T20:33:40.887Z,67.40
2023-02-13T20:36:13.973Z,67.42
2023-02-13T20:38:41.230Z,67.58
2023-02-13T20:41:13.302Z,67.38
2023-02-13T20:43:39.881Z,67.70
2023-02-13T20:46:07.176Z,67.57
2023-02-13T20:48:38.000Z,67.58
2023-02-13T20:51:07.267Z,67.49
2023-02-13T20:53:34.484Z,67.66
2023-02-13T20:56:29.297Z,67.87
2023-02-13T20:58:58.346Z,67.87
2023-02-13T21:01:32.083Z,67.78
2023-02-13T21:03:59.241Z,67.68
2023-02-13T21:06:32.047Z,67.79
2023-02-13T21:08:58.829Z,67.87
2023-02-13T21:11:26.313Z,67.71
2023-02-13T21:13:52.848Z,67.61
2023-02-13T21:16:23.154Z,67.53
2023-02-13T21:18:51.694Z,67.64
2023-02-13T21:21:20.228Z,67.75
2023-02-13T21:23:47.171Z,67.92
2023-02-13T21:26:16.741Z,67.69
2023-02-13T21:28:45.722Z,67.77
2023-02-13T21:31:19.251Z,67.72
2023-02-13T21:33:46.322Z,67.93
2023-02-13T21:36:13.235Z,67.71
2023-02-13T21:38:41.075Z,67.72
2023-02-13T21:41:13.752Z,67.45
2023-02-13T21:43:41.548Z,67.73
2023-02-13T21:46:10.484Z,67.73
2023-02-13T21:48:38.277Z,67.67
2023-02-13T21:51:07.696Z,67.90
2023-02-13T21:53:34.607Z,68.07
2023-02-13T21:56:02.800Z,68.13
2023-02-13T21:58:31.841Z,67.95
2023-02-13T22:00:58.685Z,67.96
2023-02-13T22:03:25.390Z,67.85
2023-02-13T22:05:52.034Z,67.86
2023-02-13T22:08:18.519Z,67.92
2023-02-13T22:10:53.910Z,67.65
2023-02-13T22:13:20.403Z,68.00
2023-02-13T22:15:46.947Z,67.83
2023-02-13T22:18:13.548Z,67.86
2023-02-13T22:20:40.223Z,68.00
2023-02-13T22:23:06.848Z,67.89
2023-02-13T22:25:33.438Z,67.87
2023-02-13T22:27:59.949Z,67.80
2023-02-13T22:30:26.592Z,67.84
2023-02-13T22:32:53.096Z,67.72
2023-02-13T22:35:19.607Z,67.54
2023-02-13T22:37:46.171Z,67.26
2023-02-13T22:40:12.899Z,67.27
2023-02-13T22:42:39.503Z,67.63
2023-02-13T22:45:06.322Z,67.67
2023-02-13T22:47:32.939Z,67.57
2023-02-13T22:49:59.554Z,67.47
2023-02-13T22:52:25.999Z,67.50
2023-02-13T22:54:52.476Z,67.42
2023-02-13T22:57:18.987Z,67.02
2023-02-13T22:59:45.470Z,66.92
2023-02-13T23:02:12.085Z,66.91
2023-02-13T23:04:38.642Z,66.65
2023-02-13T23:07:05.286Z,66.80
2023-02-13T23:09:31.845Z,66.97
2023-02-13T23:11:58.351Z,67.30
2023-02-13T23:14:25.152Z,67.47
2023-02-13T23:16:51.759Z,67.39
2023-02-13T23:19:18.677Z,67.41
2023-02-13T23:21:45.159Z,67.22
2023-02-13T23:24:11.760Z,67.26
2023-02-13T23:26:38.282Z,67.39
2023-02-13T23:29:04.841Z,67.49
2023-02-13T23:31:31.462Z,67.11
2023-02-13T23:33:58.062Z,67.23
2023-02-13T23:36:24.741Z,67.30
2023-02-13T23:38:51.253Z,67.48
2023-02-13T23:41:17.881Z,67.33
2023-02-13T23:43:44.613Z,67.49
2023-02-13T23:46:11.187Z,67.68
2023-02-13T23:48:37.727Z,67.62
2023-02-13T23:51:04.342Z,67.61
2023-02-13T23:53:30.977Z,67.88
2023-02-13T23:55:57.504Z,67.98
2023-02-13T23:58:24.057Z,67.76
